Time;durP1;ratioP1;P1;durP2;ratioP2;P2;SDS_P1;SDS_P2;PMS_P1;PMS_P2;Temp;Humidity;BMP_temperature;BMP_pressure;BME280_temperature;BME280_humidity;BME280_pressure;Samples;Min_cycle;Max_cycle;Signal;HPM_P1;HPM_P2
2023/10/21 00:00:22;;;;;;;5.82;1.23;;;12.00;99.90;;;11.19;100.00;98531.84;4152046;28;20030;-72
2023/10/21 00:02:23;;;;;;;8.45;1.67;;;12.00;99.90;;;11.19;100.00;98547.69;4135861;28;20022;-73
2023/10/21 00:04:24;;;;;;;10.77;2.15;;;11.90;99.90;;;11.14;100.00;98542.25;4135782;28;20030;-72
2023/10/21 00:06:25;;;;;;;4.50;1.40;;;11.90;99.90;;;11.11;100.00;98544.25;4153088;28;20052;-72
2023/10/21 00:08:27;;;;;;;9.30;1.67;;;11.90;99.90;;;11.10;100.00;98536.56;4153192;28;20022;-72
2023/10/21 00:10:28;;;;;;;6.88;1.65;;;11.90;99.90;;;11.14;100.00;98531.69;4135736;28;20078;-72
2023/10/21 00:12:29;;;;;;;8.80;2.30;;;11.90;99.90;;;11.15;100.00;98526.19;4152736;28;20042;-72
2023/10/21 00:14:30;;;;;;;6.10;1.38;;;11.90;99.90;;;11.12;100.00;98521.34;4152719;28;20026;-72
2023/10/21 00:16:31;;;;;;;12.07;2.38;;;11.90;99.90;;;11.13;100.00;98524.78;4156198;28;20022;-72
2023/10/21 00:18:32;;;;;;;9.32;1.23;;;11.90;99.90;;;11.06;100.00;98523.00;4155107;28;20065;-72
2023/10/21 00:20:33;;;;;;;15.02;1.70;;;11.80;99.90;;;11.04;100.00;98522.41;4158549;28;20029;-72
2023/10/21 00:22:35;;;;;;;7.68;1.83;;;11.80;99.90;;;10.99;100.00;98524.84;4152724;28;20049;-72
2023/10/21 00:24:36;;;;;;;7.47;1.65;;;11.80;99.90;;;10.95;100.00;98523.69;4135458;28;20161;-72
2023/10/21 00:26:48;;;;;;;11.10;1.90;;;11.80;99.90;;;10.98;100.00;98520.63;4152887;28;20030;-72
2023/10/21 00:28:49;;;;;;;9.43;2.33;;;11.70;99.90;;;10.92;100.00;98524.09;4135332;28;20058;-72
2023/10/21 00:30:50;;;;;;;12.05;1.90;;;11.70;99.90;;;10.90;100.00;98534.03;4151439;28;20097;-72
2023/10/21 00:32:51;;;;;;;5.95;2.20;;;11.70;99.90;;;10.89;100.00;98529.81;4152800;28;20068;-72
2023/10/21 00:34:52;;;;;;;11.07;2.28;;;11.70;99.90;;;10.90;100.00;98523.50;4152743;28;20018;-72
2023/10/21 00:36:53;;;;;;;8.60;1.95;;;11.70;99.90;;;10.91;100.00;98525.13;4135083;28;20039;-72
2023/10/21 00:38:54;;;;;;;7.63;1.60;;;11.70;99.90;;;10.97;100.00;98531.38;4152453;28;20053;-73
2023/10/21 00:40:56;;;;;;;4.63;1.05;;;11.70;99.90;;;10.97;100.00;98523.47;4152091;28;20034;-72
2023/10/21 00:42:57;;;;;;;11.55;1.80;;;11.70;99.90;;;10.99;100.00;98534.63;4152322;28;20033;-72
2023/10/21 00:44:59;;;;;;;12.70;1.55;;;11.80;99.90;;;11.02;100.00;98527.06;4151282;28;20044;-72
2023/10/21 00:47:00;;;;;;;10.63;2.15;;;11.80;99.90;;;11.03;100.00;98520.78;4152384;28;20053;-72
2023/10/21 00:49:03;;;;;;;7.88;1.60;;;11.80;99.90;;;11.10;100.00;98521.56;4135397;28;20041;-72
2023/10/21 00:51:04;;;;;;;14.55;3.15;;;11.80;99.90;;;11.09;100.00;98517.28;4152606;28;20034;-72
2023/10/21 00:53:05;;;;;;;12.73;1.40;;;11.80;99.90;;;11.06;100.00;98517.72;4152544;28;20030;-72
2023/10/21 00:55:09;;;;;;;9.57;1.80;;;11.90;99.90;;;11.13;100.00;98530.06;4149103;28;20021;-72
2023/10/21 00:57:09;;;;;;;6.32;1.10;;;11.80;99.90;;;11.04;100.00;98525.06;4151674;28;20030;-72
2023/10/21 00:59:14;;;;;;;10.98;1.80;;;11.80;99.90;;;11.02;100.00;98521.00;4151028;28;20452;-73
2023/10/21 01:01:15;;;;;;;11.65;1.38;;;11.80;99.90;;;11.03;100.00;98531.34;4168914;28;20025;-72
2023/10/21 01:03:16;;;;;;;12.52;1.83;;;11.80;99.90;;;11.01;100.00;98527.31;4168630;28;20032;-72
2023/10/21 01:05:19;;;;;;;10.32;1.63;;;11.80;99.90;;;11.04;100.00;98519.78;4151321;28;20038;-72
2023/10/21 01:07:20;;;;;;;12.40;2.10;;;11.80;99.90;;;11.04;100.00;98514.50;4151486;28;20109;-72
2023/10/21 01:09:22;;;;;;;15.70;2.20;;;11.80;99.90;;;11.06;100.00;98520.34;4168659;28;20021;-72
2023/10/21 01:11:22;;;;;;;15.68;2.55;;;11.80;99.90;;;11.03;100.00;98514.69;4168409;28;20116;-72
2023/10/21 01:13:23;;;;;;;10.00;1.92;;;11.90;99.90;;;11.08;100.00;98525.41;4168582;28;20033;-72
2023/10/21 01:15:24;;;;;;;13.68;2.78;;;11.80;99.90;;;11.08;100.00;98515.66;4168689;28;20033;-72
2023/10/21 01:17:25;;;;;;;15.57;2.33;;;11.80;99.90;;;11.01;100.00;98522.03;4168660;28;20036;-73
2023/10/21 01:19:26;;;;;;;15.02;2.58;;;11.80;99.90;;;10.98;100.00;98517.16;4166232;28;20026;-73
2023/10/21 01:21:27;;;;;;;10.77;1.88;;;11.80;99.90;;;10.91;100.00;98516.38;4152391;28;20451;-72
2023/10/21 01:23:31;;;;;;;13.48;3.53;;;11.70;99.90;;;10.89;100.00;98513.97;4152353;28;20060;-72
2023/10/21 01:25:33;;;;;;;14.63;1.58;;;11.70;99.90;;;10.87;100.00;98521.28;4152261;28;20113;-72
2023/10/21 01:27:34;;;;;;;8.82;2.10;;;11.70;99.90;;;10.85;100.00;98514.59;4151841;28;20076;-73
2023/10/21 01:29:35;;;;;;;9.80;1.95;;;11.60;99.90;;;10.83;100.00;98520.09;4135045;28;20023;-73
2023/10/21 01:31:36;;;;;;;15.05;3.08;;;11.60;99.90;;;10.83;100.00;98519.28;4134771;28;20082;-72
2023/10/21 01:33:37;;;;;;;10.10;1.63;;;11.60;99.90;;;10.84;100.00;98523.56;4160194;28;20033;-72
2023/10/21 01:35:38;;;;;;;12.15;2.17;;;11.60;99.90;;;10.86;100.00;98524.94;4154457;28;20036;-72
2023/10/21 01:37:39;;;;;;;21.95;3.83;;;11.60;99.90;;;10.88;100.00;98520.25;4152201;28;20056;-72
2023/10/21 01:39:40;;;;;;;12.90;2.40;;;11.60;99.90;;;10.90;100.00;98525.34;4152141;28;20061;-72
2023/10/21 01:41:41;;;;;;;9.07;2.15;;;11.60;99.90;;;10.86;100.00;98518.88;4152151;28;20072;-72
2023/10/21 01:43:41;;;;;;;8.93;1.88;;;11.70;99.90;;;10.90;100.00;98525.34;4159738;28;20033;-72
2023/10/21 01:45:42;;;;;;;11.30;2.38;;;11.60;99.90;;;10.90;100.00;98523.50;4152142;28;20080;-72
2023/10/21 01:47:43;;;;;;;12.57;2.75;;;11.70;99.90;;;10.91;100.00;98522.47;4152199;28;20029;-73
2023/10/21 01:49:44;;;;;;;15.70;2.40;;;11.70;99.90;;;10.93;100.00;98524.91;4134618;28;20085;-73
2023/10/21 01:51:45;;;;;;;20.92;3.63;;;11.70;99.90;;;10.95;100.00;98523.69;4153619;28;20030;-72
2023/10/21 01:53:45;;;;;;;23.65;2.97;;;11.70;99.90;;;11.01;100.00;98525.47;4163817;28;20022;-73
2023/10/21 01:55:46;;;;;;;15.52;3.33;;;11.80;99.90;;;11.08;100.00;98531.50;4165020;28;20030;-73
2023/10/21 01:57:47;;;;;;;17.92;3.35;;;11.80;99.90;;;11.13;100.00;98530.88;4154929;28;20034;-72
2023/10/21 01:59:49;;;;;;;15.43;2.50;;;11.90;99.90;;;11.17;100.00;98523.34;4155114;28;20077;-72
2023/10/21 02:01:50;;;;;;;13.57;2.75;;;11.90;99.90;;;11.20;100.00;98528.19;4155174;28;20044;-72
2023/10/21 02:03:52;;;;;;;17.95;2.50;;;11.90;99.90;;;11.21;100.00;98527.16;4157781;28;20018;-72
2023/10/21 02:05:53;;;;;;;15.00;3.33;;;12.00;99.90;;;11.26;100.00;98529.97;4154944;28;20037;-72
2023/10/21 02:07:53;;;;;;;16.70;3.78;;;12.00;99.90;;;11.32;100.00;98553.66;4154951;28;20096;-73
2023/10/21 02:09:54;;;;;;;14.38;2.67;;;12.10;99.90;;;11.39;100.00;98548.34;4155064;28;20026;-72
2023/10/21 02:11:56;;;;;;;18.27;3.47;;;12.10;99.90;;;11.49;100.00;98543.41;4154695;28;20505;-72
2023/10/21 02:13:57;;;;;;;18.98;3.28;;;12.20;99.90;;;11.55;100.00;98538.06;4146534;28;20117;-73
2023/10/21 02:15:58;;;;;;;25.42;4.43;;;12.30;99.90;;;11.59;100.00;98530.50;4157921;28;20033;-72
2023/10/21 02:17:59;;;;;;;14.85;3.08;;;12.30;99.90;;;11.56;100.00;98529.09;4154915;28;20366;-72
2023/10/21 02:19:59;;;;;;;17.98;3.90;;;12.30;99.90;;;11.60;100.00;98540.06;4151242;28;20033;-72
2023/10/21 02:22:00;;;;;;;16.85;4.32;;;12.30;99.90;;;11.53;100.00;98541.94;4171150;28;20421;-72
2023/10/21 02:24:01;;;;;;;15.43;3.03;;;12.30;99.90;;;11.57;100.00;98545.75;4171063;28;20028;-72
2023/10/21 02:26:04;;;;;;;19.00;3.05;;;12.30;99.90;;;11.54;100.00;98554.94;4155307;28;20045;-73
2023/10/21 02:28:05;;;;;;;17.60;3.60;;;12.30;99.90;;;11.52;100.00;98557.00;4137134;28;20022;-73
2023/10/21 02:30:14;;;;;;;15.63;3.80;;;12.30;99.90;;;11.57;100.00;98558.97;4154659;28;20057;-73
2023/10/21 02:32:15;;;;;;;16.92;4.18;;;12.30;99.90;;;11.54;100.00;98548.84;4137708;28;20030;-73
2023/10/21 02:34:16;;;;;;;15.48;3.47;;;12.30;99.90;;;11.62;100.00;98556.47;4149400;28;20079;-72
2023/10/21 02:36:17;;;;;;;13.75;2.40;;;12.30;99.90;;;11.56;100.00;98552.88;4170919;28;20026;-72
2023/10/21 02:38:18;;;;;;;16.88;2.83;;;12.30;99.90;;;11.55;100.00;98546.00;4170908;28;20025;-72
2023/10/21 02:40:19;;;;;;;16.63;3.00;;;12.30;99.90;;;11.48;100.00;98539.94;4153289;28;20034;-72
2023/10/21 02:42:20;;;;;;;13.68;3.05;;;12.30;99.90;;;11.44;100.00;98545.88;4170983;28;20493;-72
2023/10/21 02:44:21;;;;;;;14.68;3.67;;;12.30;99.90;;;11.44;100.00;98548.53;4164419;28;20033;-72
2023/10/21 02:46:22;;;;;;;16.08;4.28;;;12.20;99.90;;;11.40;100.00;98553.44;4154387;28;20037;-73
2023/10/21 02:48:23;;;;;;;12.70;2.95;;;12.20;99.90;;;11.39;100.00;98537.78;4154384;28;20080;-72
2023/10/21 02:50:25;;;;;;;15.35;3.55;;;12.20;99.90;;;11.37;100.00;98535.38;4154406;28;20076;-72
2023/10/21 02:52:26;;;;;;;16.23;3.10;;;12.20;99.90;;;11.35;100.00;98533.97;4154148;28;20065;-72
2023/10/21 02:54:27;;;;;;;21.52;3.42;;;12.10;99.90;;;11.31;100.00;98530.94;4162536;28;20064;-72
2023/10/21 02:56:28;;;;;;;17.50;4.07;;;12.10;99.90;;;11.30;100.00;98533.78;4158329;28;20072;-73
2023/10/21 02:58:29;;;;;;;12.48;3.55;;;12.10;99.90;;;11.25;100.00;98525.72;4153900;28;20055;-73
2023/10/21 03:00:31;;;;;;;18.38;3.83;;;12.10;99.90;;;11.30;100.00;98547.00;4154330;28;20052;-73
2023/10/21 03:02:31;;;;;;;12.00;2.70;;;12.10;99.90;;;11.29;100.00;98548.81;4153394;28;20034;-73
2023/10/21 03:04:32;;;;;;;14.23;2.90;;;12.10;99.90;;;11.31;100.00;98551.25;4150341;28;20037;-72
2023/10/21 03:06:33;;;;;;;16.70;3.28;;;12.10;99.90;;;11.35;100.00;98552.44;4169863;28;20108;-73
2023/10/21 03:08:39;;;;;;;14.00;2.63;;;12.10;99.90;;;11.35;100.00;98555.09;4165583;28;20405;-73
2023/10/21 03:10:40;;;;;;;18.23;4.13;;;12.10;99.90;;;11.32;100.00;98551.03;4154035;28;20044;-72
2023/10/21 03:12:40;;;;;;;14.18;3.30;;;12.10;99.90;;;11.29;100.00;98550.66;4136166;28;20038;-72
2023/10/21 03:14:41;;;;;;;16.90;3.35;;;12.10;99.90;;;11.24;100.00;98553.13;4154206;28;20080;-72
2023/10/21 03:16:43;;;;;;;21.20;3.67;;;12.10;99.90;;;11.21;100.00;98545.63;4154151;28;20448;-73
2023/10/21 03:18:45;;;;;;;21.00;4.03;;;12.00;99.90;;;11.20;100.00;98550.09;4140256;28;20033;-72
2023/10/21 03:20:50;;;;;;;19.20;2.92;;;12.00;99.90;;;11.21;100.00;98540.34;4159138;28;20026;-73
2023/10/21 03:22:51;;;;;;;14.38;3.50;;;12.00;99.90;;;11.23;100.00;98543.59;4136360;28;20026;-73
2023/10/21 03:24:52;;;;;;;16.27;2.72;;;12.00;99.90;;;11.21;100.00;98543.81;4170362;28;20030;-72
2023/10/21 03:26:53;;;;;;;19.15;3.05;;;12.00;99.90;;;11.18;100.00;98543.41;4144676;28;20037;-72
2023/10/21 03:28:54;;;;;;;21.17;3.50;;;12.00;99.90;;;11.19;100.00;98550.31;4153550;28;20034;-73
2023/10/21 03:30:59;;;;;;;20.92;4.00;;;12.00;99.90;;;11.14;100.00;98543.03;4153712;28;20026;-72
2023/10/21 03:33:02;;;;;;;16.08;3.25;;;12.00;99.90;;;11.17;100.00;98536.53;4137470;28;20041;-73
2023/10/21 03:35:04;;;;;;;16.30;5.32;;;12.00;99.90;;;11.17;100.00;98536.53;4161544;28;20018;-72
2023/10/21 03:37:05;;;;;;;19.33;3.20;;;12.00;99.90;;;11.18;100.00;98543.41;4136221;28;20033;-72
2023/10/21 03:39:06;;;;;;;16.30;2.58;;;11.90;99.90;;;11.14;100.00;98539.59;4153662;28;20022;-73
2023/10/21 03:41:10;;;;;;;18.67;4.28;;;12.00;99.90;;;11.19;100.00;98545.03;4153420;28;20120;-73
2023/10/21 03:43:11;;;;;;;21.77;2.90;;;12.00;99.90;;;11.22;100.00;98542.78;4138098;28;20026;-73
2023/10/21 03:45:11;;;;;;;14.35;2.55;;;12.00;99.90;;;11.24;100.00;98543.38;4158280;28;20052;-73
2023/10/21 03:47:12;;;;;;;17.17;3.28;;;12.00;99.90;;;11.23;100.00;98546.25;4153390;28;20108;-72
2023/10/21 03:49:13;;;;;;;20.05;3.78;;;12.00;99.90;;;11.25;100.00;98542.38;4153488;28;20517;-72
2023/10/21 03:51:14;;;;;;;17.83;3.35;;;12.00;99.90;;;11.31;100.00;98536.22;4153580;28;20018;-73
2023/10/21 03:53:16;;;;;;;16.20;3.25;;;12.00;99.90;;;11.27;100.00;98531.56;4155904;28;20026;-73
2023/10/21 03:55:18;;;;;;;15.30;3.17;;;12.10;99.90;;;11.25;100.00;98534.44;4152061;28;20415;-73
2023/10/21 03:57:19;;;;;;;12.30;2.15;;;12.10;99.90;;;11.26;100.00;98533.41;4152315;28;20076;-73
2023/10/21 03:59:19;;;;;;;10.02;2.75;;;12.10;99.90;;;11.26;100.00;98540.53;4169441;28;20024;-73
2023/10/21 04:01:20;;;;;;;15.50;2.20;;;12.10;99.90;;;11.24;100.00;98526.72;4169384;28;20029;-73
2023/10/21 04:03:21;;;;;;;15.95;3.28;;;12.10;99.90;;;11.27;100.00;98529.75;4167353;28;20025;-73
2023/10/21 04:05:22;;;;;;;16.60;2.38;;;12.10;99.90;;;11.29;100.00;98535.63;4153400;28;20030;-72
2023/10/21 04:07:23;;;;;;;14.90;2.15;;;12.10;99.90;;;11.33;100.00;98533.38;4153217;28;20022;-73
2023/10/21 04:09:25;;;;;;;17.05;3.03;;;12.10;99.90;;;11.37;100.00;98542.47;4153457;28;20022;-73
2023/10/21 04:11:26;;;;;;;20.38;2.58;;;12.10;99.90;;;11.37;100.00;98531.91;4158570;28;20160;-73
2023/10/21 04:13:26;;;;;;;10.45;2.30;;;12.10;99.90;;;11.41;100.00;98527.84;4139443;28;20034;-72
2023/10/21 04:15:28;;;;;;;13.27;3.05;;;12.20;99.90;;;11.46;100.00;98544.66;4160990;28;20022;-73
2023/10/21 04:17:29;;;;;;;13.60;3.28;;;12.20;99.90;;;11.47;100.00;98540.97;4153091;28;20036;-72
2023/10/21 04:19:29;;;;;;;11.38;2.30;;;12.20;99.90;;;11.49;100.00;98540.75;4161563;28;20032;-72
2023/10/21 04:21:30;;;;;;;14.55;3.03;;;12.20;99.90;;;11.47;100.00;98542.78;4153073;28;20026;-73
2023/10/21 04:23:31;;;;;;;13.90;2.78;;;12.30;99.90;;;11.47;100.00;98534.88;4139834;28;20041;-72
2023/10/21 04:25:32;;;;;;;10.88;2.45;;;12.30;99.90;;;11.45;100.00;98539.56;4158063;28;20072;-72
2023/10/21 04:27:33;;;;;;;9.20;1.85;;;12.20;99.90;;;11.44;100.00;98537.97;4152569;28;20013;-72
2023/10/21 04:29:34;;;;;;;12.15;2.15;;;12.20;99.90;;;11.40;100.00;98548.16;4153094;28;20030;-72
2023/10/21 04:31:36;;;;;;;14.48;2.70;;;12.20;99.90;;;11.40;100.00;98539.41;4151483;28;20030;-72
2023/10/21 04:33:36;;;;;;;11.90;2.72;;;12.20;99.90;;;11.38;100.00;98546.75;4140205;28;20513;-72
2023/10/21 04:35:37;;;;;;;20.17;3.00;;;12.20;99.90;;;11.46;100.00;98554.41;4154883;28;20030;-73
2023/10/21 04:37:38;;;;;;;14.10;3.35;;;12.20;99.90;;;11.45;100.00;98553.56;4135377;28;20026;-73
2023/10/21 04:39:39;;;;;;;21.63;3.63;;;12.20;99.90;;;11.52;100.00;98557.00;4135297;28;20018;-73
2023/10/21 04:41:40;;;;;;;17.20;2.45;;;12.30;99.90;;;11.51;100.00;98565.91;4152702;28;20030;-73
2023/10/21 04:43:41;;;;;;;14.40;2.42;;;12.30;99.90;;;11.47;100.00;98550.72;4157317;28;20481;-72
2023/10/21 04:45:42;;;;;;;16.38;3.00;;;12.30;99.90;;;11.49;100.00;98556.59;4152754;28;20025;-73
2023/10/21 04:47:43;;;;;;;16.05;3.90;;;12.30;99.90;;;11.50;100.00;98547.63;4152650;28;20030;-72
2023/10/21 04:49:44;;;;;;;13.10;3.20;;;12.30;99.90;;;11.45;100.00;98556.22;4152603;28;20083;-72
2023/10/21 04:51:45;;;;;;;12.20;2.60;;;12.30;99.90;;;11.44;100.00;98565.16;4134974;28;20030;-72
2023/10/21 04:53:46;;;;;;;16.15;3.00;;;12.30;99.90;;;11.44;100.00;98570.44;4137619;28;20497;-72
2023/10/21 04:55:49;;;;;;;16.30;3.03;;;12.20;99.90;;;11.51;100.00;98576.47;4158974;28;20021;-73
2023/10/21 04:57:49;;;;;;;14.95;2.40;;;12.30;99.90;;;11.49;100.00;98570.63;4158297;28;20064;-72
2023/10/21 04:59:50;;;;;;;21.27;3.38;;;12.30;99.90;;;11.51;100.00;98565.09;4152352;28;20026;-73
2023/10/21 05:01:51;;;;;;;22.48;3.65;;;12.30;99.90;;;11.51;100.00;98571.19;4152494;28;20038;-73
2023/10/21 05:03:52;;;;;;;24.60;3.50;;;12.30;99.90;;;11.52;100.00;98570.19;4154330;28;20485;-72
2023/10/21 05:05:53;;;;;;;20.67;4.20;;;12.30;99.90;;;11.53;100.00;98573.63;4141473;28;20034;-72
2023/10/21 05:07:54;;;;;;;23.67;4.05;;;12.30;99.90;;;11.52;100.00;98572.81;4135019;28;20092;-72
2023/10/21 05:09:54;;;;;;;18.80;3.50;;;12.30;99.90;;;11.58;100.00;98576.44;4152699;28;20033;-73
2023/10/21 05:11:55;;;;;;;18.52;3.47;;;12.40;99.90;;;11.58;100.00;98579.91;4152197;28;20041;-72
2023/10/21 05:13:57;;;;;;;23.75;3.67;;;12.40;99.90;;;11.74;100.00;98598.91;4152127;28;20045;-72
2023/10/21 05:15:57;;;;;;;13.57;3.15;;;12.40;99.90;;;11.86;100.00;98594.50;4134918;28;20490;-73
2023/10/21 05:17:58;;;;;;;21.73;2.67;;;12.50;99.90;;;11.87;100.00;98602.22;4135067;28;20073;-72
2023/10/21 05:19:59;;;;;;;12.88;2.42;;;12.50;99.90;;;11.75;100.00;98593.38;4159850;28;20370;-72
2023/10/21 05:22:02;;;;;;;11.00;2.72;;;12.50;99.90;;;11.59;100.00;98591.25;4152275;28;20034;-73
2023/10/21 05:24:03;;;;;;;16.75;2.50;;;12.40;99.90;;;11.49;100.00;98604.13;4152216;28;20400;-72
2023/10/21 05:26:04;;;;;;;10.20;2.78;;;12.30;99.90;;;11.43;100.00;98589.13;4156262;28;20039;-73
2023/10/21 05:28:05;;;;;;;9.38;1.63;;;12.20;99.90;;;11.32;100.00;98587.97;4171803;28;20396;-73
2023/10/21 05:30:07;;;;;;;9.75;1.65;;;12.10;99.90;;;11.25;100.00;98589.06;4171957;28;20037;-73
2023/10/21 05:32:08;;;;;;;15.82;2.67;;;12.10;99.90;;;11.17;100.00;98595.38;4171813;28;20120;-72
2023/10/21 05:34:09;;;;;;;10.32;2.42;;;12.00;99.90;;;11.13;100.00;98586.28;4154392;28;20049;-73
2023/10/21 05:36:10;;;;;;;11.75;2.85;;;11.90;99.90;;;11.11;100.00;98586.47;4154186;28;20026;-72
2023/10/21 05:38:11;;;;;;;9.73;2.10;;;11.90;99.90;;;11.06;100.00;98583.69;4171857;28;20025;-72
2023/10/21 05:40:12;;;;;;;8.95;1.90;;;11.90;99.90;;;11.05;100.00;98582.06;4171818;28;20036;-73
2023/10/21 05:42:13;;;;;;;12.75;2.83;;;11.90;99.90;;;11.02;100.00;98585.09;4171695;28;20079;-72
2023/10/21 05:44:14;;;;;;;11.77;1.90;;;11.80;99.90;;;11.08;100.00;98586.09;4171634;28;20033;-72
2023/10/21 05:46:14;;;;;;;15.35;2.90;;;11.80;99.90;;;11.09;100.00;98582.44;4171728;28;20025;-72
2023/10/21 05:48:15;;;;;;;15.30;3.92;;;11.80;99.90;;;11.17;100.00;98591.97;4171662;28;20033;-73
2023/10/21 05:50:19;;;;;;;15.70;3.45;;;11.90;99.90;;;11.25;100.00;98596.97;4171722;28;20030;-72
2023/10/21 05:52:20;;;;;;;13.77;3.03;;;12.00;99.90;;;11.21;100.00;98585.22;4171641;28;20044;-73
2023/10/21 05:54:21;;;;;;;20.77;4.10;;;12.00;99.90;;;11.27;100.00;98589.63;4171518;28;20025;-72
2023/10/21 05:56:22;;;;;;;19.73;3.28;;;12.00;99.90;;;11.32;100.00;98598.53;4160012;28;20037;-72
2023/10/21 05:58:24;;;;;;;19.90;3.67;;;12.10;99.90;;;11.42;100.00;98604.16;4154878;28;20022;-73
2023/10/21 06:00:25;;;;;;;16.67;2.92;;;12.10;99.90;;;11.42;100.00;98598.88;4159141;28;20032;-72
2023/10/21 06:02:26;;;;;;;20.00;2.38;;;12.20;99.90;;;11.46;100.00;98599.28;4155093;28;20049;-72
2023/10/21 06:04:27;;;;;;;15.65;2.67;;;12.20;99.90;;;11.44;100.00;98593.41;4155021;28;20034;-72
2023/10/21 06:06:28;;;;;;;14.93;4.40;;;12.20;99.90;;;11.43;100.00;98589.13;4155058;28;20030;-72
2023/10/21 06:08:29;;;;;;;15.95;3.63;;;12.20;99.90;;;11.43;100.00;98604.97;4137649;28;20077;-73
2023/10/21 06:10:30;;;;;;;23.42;4.28;;;12.20;99.90;;;11.50;100.00;98603.91;4137642;28;20023;-72
2023/10/21 06:12:32;;;;;;;14.70;3.35;;;12.20;99.90;;;11.44;100.00;98604.75;4137041;28;20085;-73
2023/10/21 06:14:34;;;;;;;18.20;3.33;;;12.20;99.90;;;11.46;100.00;98615.94;4154775;28;20068;-72
2023/10/21 06:16:34;;;;;;;17.38;2.80;;;12.20;99.90;;;11.48;100.00;98602.50;4155120;28;20546;-73
2023/10/21 06:18:36;;;;;;;18.35;2.72;;;12.20;99.90;;;11.50;100.00;98605.72;4157399;28;20026;-72
2023/10/21 06:20:37;;;;;;;15.40;3.03;;;12.20;99.90;;;11.47;100.00;98617.53;4142421;28;20041;-72
2023/10/21 06:22:38;;;;;;;13.48;3.15;;;12.30;99.90;;;11.47;100.00;98600.88;4137170;28;20034;-72
2023/10/21 06:24:39;;;;;;;10.80;2.10;;;12.20;99.90;;;11.54;100.00;98613.03;4154859;28;20037;-72
2023/10/21 06:26:40;;;;;;;12.95;2.45;;;12.30;99.90;;;11.60;100.00;98600.78;4154726;28;20029;-73
2023/10/21 06:28:41;;;;;;;16.55;2.70;;;12.30;99.90;;;11.55;100.00;98595.34;4154425;28;20034;-72
2023/10/21 06:30:42;;;;;;;13.27;2.83;;;12.30;99.90;;;11.51;100.00;98607.34;4154619;28;20371;-72
2023/10/21 06:32:43;;;;;;;12.27;2.40;;;12.30;99.90;;;11.50;100.00;98616.28;4154662;28;20111;-72
2023/10/21 06:34:44;;;;;;;16.67;3.40;;;12.30;99.90;;;11.54;100.00;98602.47;4162112;28;20022;-73
2023/10/21 06:36:45;;;;;;;10.93;2.42;;;12.30;99.90;;;11.52;100.00;98609.78;4154423;28;20041;-72
2023/10/21 06:38:49;;;;;;;14.50;3.17;;;12.30;99.90;;;11.54;100.00;98617.50;4154554;28;20403;-73
2023/10/21 06:40:49;;;;;;;12.60;2.35;;;12.30;99.90;;;11.57;100.00;98628.44;4137527;28;20023;-73
2023/10/21 06:42:50;;;;;;;10.30;2.42;;;12.30;99.90;;;11.59;100.00;98625.56;4154277;28;20081;-73
2023/10/21 06:44:51;;;;;;;19.25;3.22;;;12.40;99.90;;;11.68;100.00;98612.94;4154702;28;20044;-72
2023/10/21 06:46:52;;;;;;;24.92;3.17;;;12.40;99.90;;;11.75;100.00;98624.28;4154475;28;20026;-73
2023/10/21 06:48:54;;;;;;;13.18;2.88;;;12.40;99.90;;;11.79;100.00;98631.56;4157677;28;20029;-73
2023/10/21 06:50:55;;;;;;;15.82;2.60;;;12.50;99.90;;;11.80;100.00;98625.25;4170799;28;20032;-72
2023/10/21 06:52:57;;;;;;;10.45;2.15;;;12.50;99.90;;;11.85;100.00;98635.19;4170643;28;20397;-73
2023/10/21 06:54:58;;;;;;;23.23;4.50;;;12.60;99.90;;;11.89;100.00;98629.22;4170626;28;20103;-73
2023/10/21 06:56:58;;;;;;;14.07;3.95;;;12.60;99.90;;;11.91;100.00;98635.13;4153326;28;20021;-72
2023/10/21 06:59:00;;;;;;;17.73;3.25;;;12.60;99.90;;;11.94;100.00;98639.97;4152880;28;20066;-73
2023/10/21 07:01:01;;;;;;;16.73;3.40;;;12.70;99.90;;;12.06;100.00;98648.81;4170709;28;20554;-73
2023/10/21 07:03:02;;;;;;;16.13;3.13;;;12.70;99.90;;;12.11;100.00;98650.81;4170505;28;20025;-73
2023/10/21 07:05:09;;;;;;;12.32;2.92;;;12.80;99.90;;;12.22;100.00;98647.44;4170564;28;20056;-72
2023/10/21 07:07:10;;;;;;;15.00;3.15;;;12.90;99.90;;;12.25;100.00;98652.31;4170523;28;20109;-73
2023/10/21 07:09:11;;;;;;;15.38;3.72;;;12.90;99.90;;;12.31;100.00;98658.53;4170441;28;20377;-73
2023/10/21 07:11:13;;;;;;;17.00;3.13;;;13.00;99.90;;;12.35;100.00;98665.03;4170175;28;20021;-73
2023/10/21 07:13:14;;;;;;;16.30;3.65;;;13.00;99.90;;;12.34;100.00;98664.22;4166924;28;20030;-73
2023/10/21 07:15:15;;;;;;;15.52;3.22;;;13.10;99.90;;;12.41;100.00;98662.31;4154184;28;20539;-73
2023/10/21 07:17:16;;;;;;;15.48;2.70;;;13.10;99.90;;;12.46;100.00;98669.59;4153886;28;20109;-72
2023/10/21 07:19:17;;;;;;;18.95;3.30;;;13.20;99.90;;;12.49;100.00;98671.78;4160805;28;20124;-72
2023/10/21 07:21:19;;;;;;;18.73;3.20;;;13.20;99.90;;;12.60;100.00;98681.69;4154264;28;20030;-72
2023/10/21 07:23:20;;;;;;;17.75;3.55;;;13.30;99.90;;;12.55;100.00;98674.38;4153743;28;20062;-72
2023/10/21 07:25:23;;;;;;;14.63;3.65;;;13.30;99.90;;;12.59;100.00;98680.88;4153914;28;20087;-72
2023/10/21 07:27:26;;;;;;;19.90;3.28;;;13.30;99.90;;;12.66;100.00;98680.81;4152315;28;20030;-72
2023/10/21 07:29:27;;;;;;;18.20;2.88;;;13.40;99.90;;;12.78;100.00;98679.03;4145481;28;20524;-72
2023/10/21 07:31:27;;;;;;;24.05;3.45;;;13.40;99.90;;;12.76;100.00;98686.38;4170120;28;20030;-72
2023/10/21 07:33:28;;;;;;;14.13;3.42;;;13.50;99.90;;;12.76;100.00;98675.78;4170206;28;20407;-72
2023/10/21 07:35:29;;;;;;;14.32;3.00;;;13.50;99.90;;;12.77;100.00;98693.28;4170057;28;20021;-72
2023/10/21 07:37:30;;;;;;;16.05;2.65;;;13.50;99.90;;;12.78;100.00;98689.63;4165464;28;20497;-72
2023/10/21 07:39:32;;;;;;;18.40;4.85;;;13.50;99.90;;;12.91;100.00;98689.47;4152421;28;20021;-72
2023/10/21 07:41:33;;;;;;;18.75;3.17;;;13.50;99.90;;;12.89;100.00;98701.31;4169957;28;20037;-72
2023/10/21 07:43:34;;;;;;;15.60;3.72;;;13.60;99.90;;;12.86;100.00;98707.84;4169731;28;20025;-72
2023/10/21 07:45:35;;;;;;;17.00;3.25;;;13.60;99.90;;;12.82;100.00;98696.06;4169688;28;20401;-72
2023/10/21 07:47:38;;;;;;;17.58;2.95;;;13.60;99.90;;;12.80;100.00;98713.22;4151647;28;20084;-72
2023/10/21 07:49:39;;;;;;;12.85;3.83;;;13.60;99.90;;;12.80;100.00;98700.78;4136385;28;20023;-72
2023/10/21 07:51:40;;;;;;;14.38;2.33;;;13.60;99.90;;;12.78;100.00;98710.78;4153400;28;20057;-72
2023/10/21 07:53:41;;;;;;;9.00;2.03;;;13.60;99.90;;;12.82;100.00;98714.59;4153207;28;20037;-72
2023/10/21 07:55:42;;;;;;;10.77;1.83;;;13.60;99.90;;;12.75;100.00;98716.53;4158093;28;20022;-72
2023/10/21 07:57:43;;;;;;;8.68;1.77;;;13.50;99.90;;;12.71;100.00;98705.56;4169479;28;20037;-72
2023/10/21 07:59:44;;;;;;;11.77;2.33;;;13.50;99.90;;;12.70;100.00;98701.28;4169598;28;20022;-72
2023/10/21 08:01:45;;;;;;;13.57;2.03;;;13.50;99.90;;;12.76;100.00;98703.06;4154080;28;20107;-73
2023/10/21 08:03:46;;;;;;;9.95;2.17;;;13.50;99.90;;;12.77;100.00;98704.69;4153124;28;20026;-72
2023/10/21 08:05:47;;;;;;;16.02;2.08;;;13.50;99.90;;;12.81;100.00;98699.78;4153296;28;20037;-72
2023/10/21 08:07:48;;;;;;;10.43;2.63;;;13.60;99.90;;;12.85;100.00;98698.28;4153184;28;20113;-72
2023/10/21 08:09:49;;;;;;;10.30;2.22;;;13.60;99.90;;;12.94;100.00;98707.56;4162934;28;20021;-72
2023/10/21 08:11:50;;;;;;;11.65;2.97;;;13.60;99.90;;;12.92;100.00;98706.16;4152891;28;20038;-72
2023/10/21 08:13:51;;;;;;;17.05;2.80;;;13.70;99.90;;;12.90;100.00;98714.34;4152995;28;20053;-72
2023/10/21 08:15:52;;;;;;;16.08;3.70;;;13.70;99.90;;;12.92;100.00;98720.19;4153164;28;20080;-72
2023/10/21 08:17:53;;;;;;;20.15;3.58;;;13.70;99.90;;;12.98;100.00;98711.38;4153079;28;20469;-72
2023/10/21 08:19:53;;;;;;;23.63;4.32;;;13.70;99.90;;;13.00;100.00;98711.97;4161382;28;20397;-72